»·PEaware :: N857CP L88-KSBP

N857CP :: L88-KSBP

FLIGHT INFORMATION

Flight Status: Arrived
Operator: Privately registered:
United States
More flights under this callsign
Pilot: Sholto D. (19838)
Aircraft: CESSNA 172 SKYHAWK
(C172)
More flights by this aircraft type
Origin: L88 New Cuyama
United States
Destination: KSBP San Luis Co Regl
United States
More flights between these airports :: More routes between these airports
Route: L88 KSBP
File this flight plan on PilotEdge
Remarks: Cat2
Altitude:
(Current/Filed)
4,500ft
Speed:
(Current/Filed)
110kts
Departed: 03-Aug-18 07:14 PM
Arrived: 03-Aug-18 07:45 PM
Distance/Time
Traveled:
50nm/0:31
Distance/Time
To Go:
Arrived

Flight Plot

Page will automatically refresh every two minutes.


Map Options




Map Legend


Flown Route
Filed Route
Departure Airport
Arrival Airport
Navaid (VOR, NDB)
Fix

Horizontal Profiles

Position Reports

Time Latitude Longitude Heading Altitude Ground
Speed
03-Aug-18 19:01 34.942856 -119.690285 204 2156ft 0kts
03-Aug-18 19:02 34.942856 -119.690285 204 2156ft 0kts
03-Aug-18 19:03 34.942856 -119.690285 204 2156ft 0kts
03-Aug-18 19:04 34.942856 -119.690285 204 2156ft 0kts
03-Aug-18 19:05 34.942842 -119.690306 231 2156ft 0kts
03-Aug-18 19:06 34.942445 -119.690851 118 2156ft 6kts
03-Aug-18 19:07 34.942316 -119.690679 186 2157ft 0kts
03-Aug-18 19:08 34.942315 -119.690679 186 2157ft 0kts
03-Aug-18 19:09 34.942316 -119.690679 186 2157ft 0kts
03-Aug-18 19:10 34.942316 -119.690679 186 2157ft 0kts
03-Aug-18 19:11 34.942316 -119.690679 186 2157ft 0kts
03-Aug-18 19:12 34.941868 -119.690265 114 2158ft 14kts
03-Aug-18 19:13 34.938694 -119.682613 118 2190ft 21kts
03-Aug-18 19:14 34.937680 -119.680063 296 2200ft 0kts
03-Aug-18 19:15 34.940211 -119.686152 296 2248ft 77kts
03-Aug-18 19:16 34.953889 -119.706431 294 3190ft 74kts
03-Aug-18 19:17 34.965208 -119.728230 268 4044ft 77kts
03-Aug-18 19:18 34.974895 -119.751664 303 4863ft 81kts
03-Aug-18 19:19 34.995578 -119.765575 332 5384ft 108kts
03-Aug-18 19:20 35.024373 -119.781179 323 5373ft 113kts
03-Aug-18 19:21 35.043063 -119.810325 302 5365ft 108kts
03-Aug-18 19:22 35.060691 -119.840092 317 5418ft 107kts
03-Aug-18 19:23 35.085257 -119.861523 297 5439ft 108kts
03-Aug-18 19:24 35.086123 -119.898062 270 5358ft 114kts
03-Aug-18 19:25 35.098833 -119.932475 306 5234ft 114kts
03-Aug-18 19:26 35.114059 -119.964888 283 5194ft 109kts
03-Aug-18 19:27 35.121349 -120.001397 284 5092ft 113kts
03-Aug-18 19:28 35.130525 -120.035727 288 5470ft 102kts
03-Aug-18 19:29 35.137525 -120.070961 283 5493ft 99kts
03-Aug-18 19:30 35.143468 -120.103632 283 5503ft 96kts
03-Aug-18 19:31 35.149015 -120.135776 279 5508ft 96kts
03-Aug-18 19:32 35.153833 -120.168079 279 5516ft 96kts
03-Aug-18 19:33 35.157436 -120.200819 283 5516ft 97kts
03-Aug-18 19:34 35.161916 -120.233488 273 5574ft 98kts
03-Aug-18 19:35 35.166238 -120.267618 284 5575ft 102kts
03-Aug-18 19:36 35.172373 -120.301726 274 5598ft 100kts
03-Aug-18 19:37 35.176508 -120.336381 280 5496ft 110kts
03-Aug-18 19:38 35.182304 -120.372617 283 5070ft 115kts
03-Aug-18 19:39 35.189895 -120.410365 286 4461ft 113kts
03-Aug-18 19:40 35.197378 -120.448189 283 3733ft 119kts
03-Aug-18 19:41 35.201317 -120.487465 274 2897ft 117kts
03-Aug-18 19:42 35.209266 -120.525165 282 2073ft 114kts
03-Aug-18 19:43 35.217531 -120.562034 293 1408ft 112kts
03-Aug-18 19:44 35.215745 -120.596900 271 1120ft 97kts
03-Aug-18 19:45 35.225440 -120.620122 302 602ft 60kts
03-Aug-18 19:46 35.234131 -120.635337 302 208ft 39kts
03-Aug-18 19:47 35.235329 -120.636130 76 206ft 0kts
03-Aug-18 19:48 35.236224 -120.636230 28 206ft 10kts
03-Aug-18 19:49 35.236483 -120.635893 217 207ft 0kts
03-Aug-18 19:50 35.236483 -120.635893 217 207ft 0kts
03-Aug-18 19:51 35.236483 -120.635893 217 207ft 0kts
03-Aug-18 19:52 35.236483 -120.635893 217 207ft 0kts
03-Aug-18 19:53 35.236483 -120.635893 217 207ft 0kts
03-Aug-18 19:54 35.236483 -120.635893 217 207ft 0kts
03-Aug-18 19:55 35.236483 -120.635893 217 207ft 0kts
03-Aug-18 19:56 35.236475 -120.635901 223 207ft 0kts
03-Aug-18 19:57 35.236475 -120.635901 223 207ft 0kts
03-Aug-18 19:58 35.236475 -120.635901 223 207ft 0kts
03-Aug-18 19:59 35.236474 -120.635903 227 207ft 0kts
03-Aug-18 20:00 35.236474 -120.635903 227 207ft 0kts

Navigation Log

Ident Type
1. L88 Airport
2. KSBP Airport